Time;durP1;ratioP1;P1;durP2;ratioP2;P2;SDS_P1;SDS_P2;PMS_P1;PMS_P2;Temp;Humidity;BMP_temperature;BMP_pressure;BME280_temperature;BME280_humidity;BME280_pressure;Samples;Min_cycle;Max_cycle;Signal;HPM_P1;HPM_P2
2022/05/12 00:02:12;;;;;;;5.30;4.07;;;14.50;43.70;;;;;;5068126;28;20047;-57
2022/05/12 00:04:38;;;;;;;5.22;3.85;;;14.50;43.80;;;;;;5085950;28;20094;-57
2022/05/12 00:07:05;;;;;;;5.60;3.72;;;14.50;43.90;;;;;;5088471;28;20025;-57
2022/05/12 00:09:31;;;;;;;5.90;3.92;;;14.40;43.90;;;;;;5086364;28;20024;-57
2022/05/12 00:11:56;;;;;;;8.20;4.40;;;14.40;43.90;;;;;;5085371;28;20099;-57
2022/05/12 00:14:22;;;;;;;5.25;3.45;;;14.40;44.10;;;;;;5084170;28;20107;-57
2022/05/12 00:16:48;;;;;;;6.50;3.70;;;14.30;44.20;;;;;;5091146;28;20519;-57
2022/05/12 00:19:14;;;;;;;5.90;3.92;;;14.30;44.30;;;;;;5089540;28;20055;-55
2022/05/12 00:21:40;;;;;;;4.95;3.65;;;14.30;44.40;;;;;;5087492;28;20134;-57
2022/05/12 00:24:06;;;;;;;5.80;3.60;;;14.20;44.40;;;;;;5087896;28;20408;-57
2022/05/12 00:26:34;;;;;;;5.93;3.88;;;14.20;44.50;;;;;;5088587;28;20111;-56
2022/05/12 00:29:01;;;;;;;6.38;3.80;;;14.20;44.50;;;;;;5088058;28;20472;-57
2022/05/12 00:31:29;;;;;;;5.53;4.07;;;14.20;44.70;;;;;;5088191;28;20028;-57
2022/05/12 00:33:55;;;;;;;6.30;3.90;;;14.10;44.70;;;;;;5090720;28;20028;-55
2022/05/12 00:36:21;;;;;;;6.95;3.92;;;14.10;44.80;;;;;;5091284;28;20024;-57
2022/05/12 00:38:47;;;;;;;5.90;3.85;;;14.10;45.00;;;;;;5090889;28;20129;-57
2022/05/12 00:41:13;;;;;;;6.15;3.80;;;14.10;45.00;;;;;;5092219;28;20451;-57
2022/05/12 00:43:48;;;;;;;5.95;3.75;;;14.00;45.00;;;;;;5090021;28;20100;-57
2022/05/12 00:46:23;;;;;;;5.50;3.90;;;14.00;45.10;;;;;;5091867;28;20507;-57
2022/05/12 00:48:50;;;;;;;6.13;3.58;;;13.90;45.20;;;;;;5089463;28;20513;-57
2022/05/12 00:51:21;;;;;;;5.13;3.75;;;13.90;45.20;;;;;;5089824;28;20404;-57
2022/05/12 00:53:50;;;;;;;4.60;3.80;;;13.90;45.40;;;;;;5092832;28;20691;-57
2022/05/12 00:56:20;;;;;;;6.43;3.95;;;13.90;45.40;;;;;;5090930;28;20036;-57
2022/05/12 00:58:48;;;;;;;7.97;4.18;;;13.90;45.50;;;;;;5091674;28;20373;-57
2022/05/12 01:01:14;;;;;;;5.15;3.63;;;13.90;45.50;;;;;;5090715;28;20028;-57
2022/05/12 01:03:43;;;;;;;5.97;3.72;;;13.90;45.60;;;;;;5089081;28;20029;-57
2022/05/12 01:06:11;;;;;;;5.47;3.83;;;13.90;45.70;;;;;;5088968;28;20089;-57
2022/05/12 01:08:38;;;;;;;6.15;3.72;;;13.90;45.70;;;;;;5090598;28;20077;-57
2022/05/12 01:11:10;;;;;;;6.35;3.95;;;13.90;45.80;;;;;;5089487;28;20087;-56
2022/05/12 01:13:36;;;;;;;4.50;3.40;;;13.90;45.90;;;;;;5089108;28;20052;-57
2022/05/12 01:16:03;;;;;;;6.10;3.65;;;13.90;45.80;;;;;;5089937;28;20063;-57
2022/05/12 01:18:31;;;;;;;6.10;4.25;;;14.00;45.90;;;;;;5089065;28;20024;-57
2022/05/12 01:20:58;;;;;;;4.75;3.58;;;14.00;46.00;;;;;;5088287;28;20510;-57
2022/05/12 01:23:38;;;;;;;5.47;3.95;;;14.00;46.00;;;;;;5083965;28;20039;-57
2022/05/12 01:26:11;;;;;;;5.40;4.15;;;14.00;46.00;;;;;;5088679;28;20539;-56
2022/05/12 01:28:37;;;;;;;5.68;4.22;;;14.00;46.00;;;;;;5091222;28;20032;-56
2022/05/12 01:31:04;;;;;;;7.07;3.63;;;14.00;45.90;;;;;;5091433;28;20062;-56
2022/05/12 01:33:31;;;;;;;6.70;3.97;;;14.00;46.00;;;;;;5087014;28;20028;-57
2022/05/12 01:35:57;;;;;;;5.65;3.90;;;14.10;46.10;;;;;;5087663;28;20025;-57
2022/05/12 01:38:23;;;;;;;5.35;3.90;;;14.00;46.10;;;;;;5089740;28;20024;-56
2022/05/12 01:40:50;;;;;;;5.75;3.40;;;14.10;46.20;;;;;;5084982;28;20356;-57
2022/05/12 01:43:16;;;;;;;6.63;3.65;;;14.10;46.20;;;;;;5090583;28;20020;-57
2022/05/12 01:45:42;;;;;;;6.63;3.63;;;14.10;46.30;;;;;;5089686;28;20040;-57
2022/05/12 01:48:10;;;;;;;4.85;3.72;;;14.10;46.30;;;;;;5089378;28;20074;-57
2022/05/12 01:50:41;;;;;;;6.32;4.50;;;14.10;46.30;;;;;;5091138;28;20149;-57
2022/05/12 01:53:09;;;;;;;5.53;3.85;;;14.10;46.50;;;;;;5089537;28;20073;-57
2022/05/12 01:55:35;;;;;;;5.05;3.78;;;14.10;46.40;;;;;;5088583;28;20040;-56
2022/05/12 01:58:01;;;;;;;6.32;3.80;;;14.10;46.40;;;;;;5088087;28;20036;-57
2022/05/12 02:00:29;;;;;;;5.88;3.65;;;14.10;46.40;;;;;;5089553;28;20170;-56
2022/05/12 02:02:57;;;;;;;4.95;3.30;;;14.10;46.50;;;;;;5089761;28;20020;-57
2022/05/12 02:05:23;;;;;;;5.28;3.42;;;14.10;46.40;;;;;;5089770;28;20488;-57
2022/05/12 02:07:49;;;;;;;5.82;3.50;;;14.10;46.60;;;;;;5087225;28;20023;-57
2022/05/12 02:10:22;;;;;;;4.80;3.60;;;14.10;46.70;;;;;;5090395;28;20024;-56
2022/05/12 02:12:48;;;;;;;4.78;3.80;;;14.10;46.60;;;;;;5090975;28;20016;-56
2022/05/12 02:15:14;;;;;;;5.22;3.78;;;14.10;46.70;;;;;;5086714;28;20384;-57
2022/05/12 02:17:39;;;;;;;7.40;3.53;;;14.10;46.60;;;;;;5089158;28;20043;-56
2022/05/12 02:20:06;;;;;;;5.07;3.92;;;14.10;46.60;;;;;;5089313;28;20034;-57
2022/05/12 02:22:32;;;;;;;4.75;3.30;;;14.10;46.70;;;;;;5089126;28;20407;-57
2022/05/12 02:24:58;;;;;;;8.63;4.20;;;14.10;46.70;;;;;;5089779;28;20032;-57
2022/05/12 02:27:24;;;;;;;5.25;4.00;;;14.10;46.70;;;;;;5087765;28;20016;-56
2022/05/12 02:29:50;;;;;;;5.68;3.70;;;14.10;46.70;;;;;;5090356;28;20382;-57
2022/05/12 02:32:15;;;;;;;4.53;3.47;;;14.10;46.80;;;;;;5088047;28;20022;-57
2022/05/12 02:34:41;;;;;;;5.78;3.78;;;14.10;46.90;;;;;;5086427;28;20028;-57
2022/05/12 02:37:08;;;;;;;6.45;4.35;;;14.10;46.80;;;;;;5088429;28;20035;-56
2022/05/12 02:39:37;;;;;;;5.40;3.95;;;14.10;46.90;;;;;;5088408;28;20115;-56
2022/05/12 02:42:05;;;;;;;4.80;3.80;;;14.10;46.90;;;;;;5085733;28;20012;-57
2022/05/12 02:44:31;;;;;;;5.75;3.95;;;14.10;47.00;;;;;;5086602;28;20034;-57
2022/05/12 02:46:57;;;;;;;4.75;3.60;;;14.10;47.00;;;;;;5088614;28;20107;-57
2022/05/12 02:49:23;;;;;;;6.00;3.58;;;14.10;47.00;;;;;;5087474;28;20077;-57
2022/05/12 02:51:49;;;;;;;6.47;3.88;;;14.10;47.00;;;;;;5086338;28;20024;-57
2022/05/12 02:54:16;;;;;;;6.60;3.60;;;14.10;47.10;;;;;;5089831;28;20117;-57
2022/05/12 02:56:42;;;;;;;5.00;3.90;;;14.20;47.10;;;;;;5091500;28;20056;-57
2022/05/12 02:59:09;;;;;;;5.60;3.80;;;14.20;47.10;;;;;;5088279;28;20052;-57
2022/05/12 03:01:35;;;;;;;4.57;3.75;;;14.20;47.10;;;;;;5083701;28;20025;-56
2022/05/12 03:04:01;;;;;;;5.38;4.10;;;14.20;47.20;;;;;;5088469;28;20027;-56
2022/05/12 03:06:27;;;;;;;5.47;3.92;;;14.20;47.10;;;;;;5088393;28;20020;-57
2022/05/12 03:08:53;;;;;;;5.22;3.72;;;14.20;47.10;;;;;;5088236;28;20028;-57
2022/05/12 03:11:20;;;;;;;5.47;4.00;;;14.30;47.10;;;;;;5089618;28;20439;-57
2022/05/12 03:13:48;;;;;;;8.50;4.22;;;14.30;47.20;;;;;;5088261;28;20369;-57
2022/05/12 03:16:16;;;;;;;7.00;4.03;;;14.30;47.20;;;;;;5086223;28;20106;-57
2022/05/12 03:18:42;;;;;;;5.82;4.03;;;14.40;47.30;;;;;;5087576;28;20039;-57
2022/05/12 03:21:09;;;;;;;6.97;4.00;;;14.40;47.30;;;;;;5084656;28;20115;-57
2022/05/12 03:23:35;;;;;;;4.55;3.47;;;14.50;47.30;;;;;;5087258;28;20020;-57
2022/05/12 03:26:01;;;;;;;5.85;3.72;;;14.60;47.30;;;;;;5086411;28;20027;-56
2022/05/12 03:28:27;;;;;;;5.35;3.70;;;14.70;47.10;;;;;;5064330;28;20043;-57
2022/05/12 03:30:53;;;;;;;4.80;3.75;;;14.70;47.20;;;;;;5085050;28;20063;-57
2022/05/12 03:33:19;;;;;;;6.70;3.90;;;14.80;47.20;;;;;;5085946;28;20024;-57
2022/05/12 03:35:45;;;;;;;4.63;3.47;;;14.80;47.20;;;;;;5086063;28;20032;-57
2022/05/12 03:38:11;;;;;;;6.78;3.58;;;14.90;47.70;;;;;;5085073;28;20476;-57
2022/05/12 03:40:37;;;;;;;6.07;4.03;;;14.90;47.00;;;;;;5088495;28;20115;-57
2022/05/12 03:43:03;;;;;;;5.38;3.67;;;15.00;47.10;;;;;;5088746;28;20016;-57
2022/05/12 03:45:30;;;;;;;5.85;3.90;;;15.00;47.10;;;;;;5079819;28;20059;-57
2022/05/12 03:47:57;;;;;;;6.05;3.90;;;15.10;47.20;;;;;;5087485;28;20029;-56
2022/05/12 03:50:26;;;;;;;6.43;4.07;;;15.30;47.40;;;;;;5094153;28;20480;-57
2022/05/12 03:52:54;;;;;;;7.78;3.60;;;15.50;47.30;;;;;;5095135;28;20395;-57
2022/05/12 03:55:22;;;;;;;5.45;3.85;;;15.70;47.00;;;;;;5090176;28;20028;-57
2022/05/12 03:57:51;;;;;;;5.13;3.33;;;15.90;47.00;;;;;;5076270;28;20048;-58
2022/05/12 04:00:23;;;;;;;7.55;3.92;;;16.40;47.50;;;;;;5088462;28;20040;-56
2022/05/12 04:02:50;;;;;;;5.00;3.38;;;17.40;47.30;;;;;;5076317;28;20055;-56
2022/05/12 04:05:18;;;;;;;5.18;3.40;;;18.60;46.50;;;;;;5091864;28;20077;-57
2022/05/12 04:07:44;;;;;;;7.80;3.78;;;19.80;45.40;;;;;;5086262;28;20032;-57
2022/05/12 04:10:12;;;;;;;5.55;2.60;;;21.20;44.20;;;;;;5093338;28;20098;-58
2022/05/12 04:12:38;;;;;;;4.30;3.30;;;22.40;43.00;;;;;;5076300;28;20035;-58
2022/05/12 04:15:05;;;;;;;6.05;3.58;;;23.50;41.80;;;;;;5080538;28;21781;-57
2022/05/12 04:17:31;;;;;;;4.60;3.33;;;24.60;40.80;;;;;;5081159;28;20028;-57
2022/05/12 04:20:00;;;;;;;4.63;3.03;;;25.60;40.00;;;;;;5085886;28;20025;-57
2022/05/12 04:22:26;;;;;;;3.85;3.10;;;26.60;39.30;;;;;;5078841;28;20116;-57
2022/05/12 04:24:51;;;;;;;3.17;2.63;;;27.30;38.60;;;;;;5090244;28;20095;-59
2022/05/12 04:27:17;;;;;;;4.30;3.03;;;27.80;38.20;;;;;;5092960;28;20070;-58
2022/05/12 04:29:43;;;;;;;3.35;2.55;;;28.30;37.90;;;;;;5091025;28;20031;-57
2022/05/12 04:32:10;;;;;;;5.25;2.88;;;29.00;37.40;;;;;;5086300;28;20441;-58
2022/05/12 04:37:32;;;;;;;3.88;2.65;;;30.60;36.50;;;;;;5088870;28;20059;-58
2022/05/12 04:40:07;;;;;;;3.85;2.15;;;31.50;36.00;;;;;;5087354;28;20039;-57
2022/05/12 04:42:33;;;;;;;2.60;2.13;;;32.20;35.50;;;;;;5085170;28;20020;-58
2022/05/12 04:44:59;;;;;;;4.38;2.63;;;32.60;35.20;;;;;;5095016;28;20031;-56
2022/05/12 04:47:25;;;;;;;3.00;2.20;;;33.20;34.90;;;;;;5091289;28;20409;-55
2022/05/12 04:49:50;;;;;;;5.10;3.00;;;33.60;34.50;;;;;;5094249;28;20442;-55
2022/05/12 04:52:16;;;;;;;2.50;2.30;;;34.00;33.90;;;;;;5092814;28;20024;-57
2022/05/12 04:54:42;;;;;;;3.83;2.40;;;34.20;33.70;;;;;;5090191;28;20138;-56
2022/05/12 04:57:08;;;;;;;4.63;3.05;;;34.40;33.50;;;;;;5083724;28;20089;-56
2022/05/12 04:59:33;;;;;;;2.85;1.98;;;34.60;33.20;;;;;;5084334;28;20020;-56
2022/05/12 05:02:00;;;;;;;3.03;2.20;;;34.80;33.00;;;;;;5084346;28;20020;-57
2022/05/12 05:04:26;;;;;;;2.67;2.03;;;34.80;32.70;;;;;;5083987;28;20036;-56
2022/05/12 05:06:52;;;;;;;3.72;2.80;;;34.40;32.30;;;;;;5087447;28;20033;-57
2022/05/12 05:09:17;;;;;;;3.28;2.47;;;33.70;32.20;;;;;;5070823;28;20099;-57
2022/05/12 05:11:43;;;;;;;4.63;2.60;;;32.80;32.20;;;;;;5092088;28;20040;-56
2022/05/12 05:14:09;;;;;;;4.55;2.85;;;32.00;32.20;;;;;;5087536;28;20024;-56
2022/05/12 05:16:35;;;;;;;5.20;2.90;;;31.10;32.40;;;;;;5089757;28;20032;-57
2022/05/12 05:19:00;;;;;;;4.22;2.70;;;30.30;32.50;;;;;;5085654;28;20051;-57
2022/05/12 05:21:26;;;;;;;6.25;3.10;;;29.50;32.80;;;;;;5086986;28;20071;-56
2022/05/12 05:23:52;;;;;;;7.95;3.35;;;28.70;33.00;;;;;;5085961;28;20051;-57
2022/05/12 05:26:18;;;;;;;5.95;3.45;;;28.10;33.50;;;;;;5088126;28;20032;-56
2022/05/12 05:28:44;;;;;;;6.20;3.67;;;27.50;33.80;;;;;;5087691;28;20488;-56
2022/05/12 05:31:09;;;;;;;4.25;2.90;;;27.00;34.00;;;;;;5087346;28;20479;-56
2022/05/12 05:33:35;;;;;;;5.47;3.22;;;26.50;34.40;;;;;;5086697;28;20040;-56
2022/05/12 05:36:01;;;;;;;7.07;3.28;;;26.10;34.60;;;;;;5088602;28;20043;-55
2022/05/12 05:38:27;;;;;;;5.68;3.10;;;25.70;35.00;;;;;;5090876;28;20042;-56
2022/05/12 05:40:53;;;;;;;3.80;2.97;;;25.40;35.30;;;;;;5086547;28;20032;-56
2022/05/12 05:43:19;;;;;;;4.93;3.15;;;25.20;36.20;;;;;;5088286;28;20031;-56
2022/05/12 05:45:45;;;;;;;5.18;3.30;;;25.10;35.90;;;;;;5091414;28;20033;-56
2022/05/12 05:48:11;;;;;;;9.43;3.35;;;24.90;36.00;;;;;;5081698;28;20090;-56
2022/05/12 05:53:26;;;;;;;6.60;3.58;;;24.70;36.30;;;;;;5077034;28;20043;-57
2022/05/12 05:55:55;;;;;;;4.38;2.92;;;24.50;36.50;;;;;;5079855;28;20032;-56
2022/05/12 05:58:22;;;;;;;6.25;3.30;;;24.40;36.70;;;;;;5071489;28;20438;-56
2022/05/12 06:00:48;;;;;;;5.45;2.92;;;24.20;36.60;;;;;;5071867;28;20039;-56
2022/05/12 06:03:14;;;;;;;5.25;3.40;;;24.10;36.80;;;;;;5078147;28;20071;-56
2022/05/12 06:05:41;;;;;;;5.07;3.35;;;24.00;37.10;;;;;;5074721;28;20032;-56
2022/05/12 06:08:10;;;;;;;4.93;3.22;;;24.00;37.30;;;;;;5086354;28;20063;-58
2022/05/12 06:10:36;;;;;;;6.72;3.25;;;24.00;37.40;;;;;;5082015;28;20024;-56
2022/05/12 06:13:03;;;;;;;4.32;3.25;;;24.00;37.40;;;;;;5079543;28;20077;-57
2022/05/12 06:15:29;;;;;;;4.53;3.47;;;24.00;37.60;;;;;;5084390;28;20047;-57
2022/05/12 06:17:55;;;;;;;5.13;3.10;;;24.00;37.90;;;;;;5078333;28;20043;-56
2022/05/12 06:20:22;;;;;;;5.78;3.60;;;23.90;37.80;;;;;;5084655;28;20106;-57
2022/05/12 06:22:49;;;;;;;6.97;3.50;;;23.90;37.90;;;;;;5075492;28;20063;-55
2022/05/12 06:25:16;;;;;;;5.45;3.05;;;23.80;37.80;;;;;;5083733;28;20035;-57
2022/05/12 06:27:42;;;;;;;6.25;3.50;;;23.80;37.80;;;;;;5085594;28;20024;-57
2022/05/12 06:30:11;;;;;;;6.00;3.10;;;23.70;38.00;;;;;;5074507;28;20032;-56
2022/05/12 06:32:38;;;;;;;8.25;3.30;;;23.60;38.10;;;;;;5077806;28;20123;-56
2022/05/12 06:35:05;;;;;;;5.15;3.08;;;23.50;38.60;;;;;;5069570;28;20032;-56
2022/05/12 06:37:32;;;;;;;8.88;3.83;;;23.50;38.40;;;;;;5082167;28;20506;-57
2022/05/12 06:39:57;;;;;;;5.55;3.13;;;23.40;38.70;;;;;;5075191;28;20114;-56
2022/05/12 06:42:23;;;;;;;4.28;3.08;;;23.30;38.70;;;;;;5078666;28;20020;-56
2022/05/12 06:44:50;;;;;;;7.22;3.47;;;23.30;38.80;;;;;;5077610;28;20036;-59
2022/05/12 06:47:16;;;;;;;5.90;3.20;;;23.30;39.00;;;;;;5073567;28;20100;-56
2022/05/12 06:49:43;;;;;;;7.05;3.40;;;23.30;39.20;;;;;;5078355;28;20033;-57
2022/05/12 06:52:09;;;;;;;6.18;3.33;;;23.30;39.40;;;;;;5076195;28;20062;-57
2022/05/12 06:54:36;;;;;;;5.57;3.03;;;23.30;39.40;;;;;;5080425;28;20035;-57
2022/05/12 06:57:03;;;;;;;6.25;3.00;;;23.30;39.50;;;;;;5076357;28;20051;-57
2022/05/12 06:59:29;;;;;;;8.30;3.42;;;23.30;39.50;;;;;;5076293;28;20233;-58
2022/05/12 07:01:55;;;;;;;6.07;3.28;;;23.30;39.50;;;;;;5071906;28;20697;-58
2022/05/12 07:04:21;;;;;;;5.47;3.10;;;23.30;39.50;;;;;;5069516;28;20036;-58
2022/05/12 07:06:47;;;;;;;4.68;3.10;;;23.40;39.60;;;;;;5072835;28;20027;-57
2022/05/12 07:09:13;;;;;;;4.75;3.08;;;23.40;39.80;;;;;;5076370;28;20027;-58
2022/05/12 07:11:39;;;;;;;5.20;2.90;;;23.30;39.60;;;;;;5077697;28;20048;-57
2022/05/12 07:14:05;;;;;;;5.80;3.38;;;23.40;39.70;;;;;;5077241;28;20507;-58
2022/05/12 07:16:31;;;;;;;4.53;2.80;;;23.40;39.70;;;;;;5074025;28;20430;-58
2022/05/12 07:18:56;;;;;;;4.55;2.88;;;23.40;39.70;;;;;;5066616;28;20036;-57
2022/05/12 07:26:53;;;;;;;4.00;2.90;;;23.40;39.40;;;;;;5072373;28;20043;-58
2022/05/12 07:29:22;;;;;;;4.35;2.55;;;23.40;39.30;;;;;;5070880;28;20024;-59
2022/05/12 07:31:49;;;;;;;4.50;3.07;;;23.50;39.40;;;;;;5059620;28;20124;-58
2022/05/12 07:34:15;;;;;;;4.75;2.53;;;23.50;39.40;;;;;;5060233;28;20036;-58
2022/05/12 07:36:44;;;;;;;4.60;2.75;;;23.50;39.30;;;;;;5064342;28;20028;-58
2022/05/12 07:39:12;;;;;;;4.45;2.67;;;23.60;39.50;;;;;;5066256;28;20548;-59
2022/05/12 07:41:41;;;;;;;2.80;2.33;;;23.60;39.30;;;;;;5068053;28;20816;-59
2022/05/12 07:44:14;;;;;;;2.72;2.50;;;23.60;38.90;;;;;;5063117;28;20074;-59
2022/05/12 07:46:40;;;;;;;3.47;2.40;;;23.70;38.90;;;;;;5065311;28;20039;-58
2022/05/12 07:49:06;;;;;;;3.15;2.30;;;23.70;38.80;;;;;;5058650;28;20028;-58
2022/05/12 07:51:32;;;;;;;4.07;2.33;;;23.70;38.70;;;;;;5054097;28;20104;-58
2022/05/12 07:53:58;;;;;;;4.22;2.78;;;23.70;38.50;;;;;;5066907;28;20487;-59
2022/05/12 07:56:26;;;;;;;5.03;2.60;;;23.80;38.60;;;;;;5069287;28;20147;-57
2022/05/12 07:58:54;;;;;;;3.17;2.40;;;23.80;38.40;;;;;;5071773;28;20055;-59
2022/05/12 08:01:20;;;;;;;2.28;2.08;;;23.80;38.00;;;;;;5063945;28;20252;-58
2022/05/12 08:03:47;;;;;;;3.92;2.40;;;23.80;37.80;;;;;;5059009;28;20029;-59
2022/05/12 08:06:16;;;;;;;2.85;2.15;;;23.80;37.70;;;;;;5062941;28;20507;-59
2022/05/12 08:08:48;;;;;;;4.55;2.40;;;23.80;37.50;;;;;;5065522;28;20115;-57
2022/05/12 08:11:14;;;;;;;2.50;2.20;;;23.80;37.50;;;;;;5057322;28;20090;-58
2022/05/12 08:13:42;;;;;;;3.95;2.38;;;23.80;37.50;;;;;;5067395;28;20039;-58
2022/05/12 08:16:08;;;;;;;4.95;2.53;;;23.90;37.50;;;;;;5058685;28;20578;-57
2022/05/12 08:18:36;;;;;;;4.70;2.20;;;23.90;37.50;;;;;;5061294;28;21538;-58
2022/05/12 08:21:02;;;;;;;4.00;2.17;;;23.90;36.90;;;;;;5057383;28;20411;-58
2022/05/12 08:23:28;;;;;;;2.22;1.90;;;23.90;36.90;;;;;;5073280;28;20028;-59
2022/05/12 08:25:53;;;;;;;3.33;2.22;;;23.90;36.80;;;;;;5068466;28;20718;-58
2022/05/12 08:28:22;;;;;;;2.40;2.00;;;23.90;36.80;;;;;;5056688;28;20039;-58
2022/05/12 08:30:49;;;;;;;2.83;2.03;;;23.90;36.90;;;;;;5044398;28;20131;-58
2022/05/12 08:33:16;;;;;;;2.65;2.03;;;24.00;36.70;;;;;;5050444;28;20043;-58
2022/05/12 08:35:42;;;;;;;2.58;2.20;;;24.00;36.70;;;;;;5066809;28;20096;-58
2022/05/12 08:38:09;;;;;;;2.65;2.20;;;24.00;36.40;;;;;;5069783;28;20440;-57
2022/05/12 08:40:53;;;;;;;3.20;2.80;;;24.00;36.30;;;;;;5074256;28;20642;-59
2022/05/12 08:43:25;;;;;;;5.47;3.90;;;24.00;36.40;;;;;;5076350;28;20736;-58
2022/05/12 08:45:58;;;;;;;6.20;4.43;;;24.00;36.30;;;;;;5067861;28;20036;-58
2022/05/12 08:48:24;;;;;;;8.18;4.53;;;23.90;36.20;;;;;;5070771;28;20052;-60
2022/05/12 08:50:53;;;;;;;4.43;3.33;;;23.90;36.20;;;;;;5068033;28;20032;-59
2022/05/12 08:53:25;;;;;;;5.85;3.92;;;23.90;36.30;;;;;;5059820;28;20032;-59
2022/05/12 08:55:51;;;;;;;3.13;2.50;;;23.90;36.10;;;;;;5061346;28;20119;-58
2022/05/12 08:58:30;;;;;;;3.47;2.70;;;23.90;36.10;;;;;;5067308;28;20042;-60
2022/05/12 09:01:14;;;;;;;3.83;2.17;;;23.90;36.30;;;;;;5062835;28;21386;-59
2022/05/12 09:04:08;;;;;;;3.17;2.17;;;23.90;36.30;;;;;;5069241;28;20421;-59
2022/05/12 09:06:52;;;;;;;3.58;2.78;;;23.90;36.30;;;;;;5051297;28;20085;-59
2022/05/12 09:09:39;;;;;;;2.20;2.00;;;24.00;36.50;;;;;;5068274;28;20127;-58
2022/05/12 09:12:37;;;;;;;3.45;2.90;;;24.00;36.20;;;;;;5066086;28;20020;-59
2022/05/12 09:15:16;;;;;;;2.63;2.30;;;24.00;36.20;;;;;;5064036;28;20475;-57
2022/05/12 09:18:04;;;;;;;8.93;2.10;;;24.00;36.00;;;;;;5070491;28;20032;-59
2022/05/12 09:20:33;;;;;;;4.05;2.60;;;24.00;36.20;;;;;;5063401;28;20503;-58
2022/05/12 09:23:00;;;;;;;3.20;2.58;;;24.00;36.00;;;;;;5063603;28;20028;-57
2022/05/12 09:25:32;;;;;;;2.40;2.00;;;24.00;36.00;;;;;;5062191;28;20020;-60
2022/05/12 09:27:58;;;;;;;2.63;1.80;;;24.10;36.10;;;;;;5058376;28;20024;-58
2022/05/12 09:30:50;;;;;;;2.88;2.10;;;24.10;36.60;;;;;;5044751;28;20071;-57
2022/05/12 09:33:26;;;;;;;3.50;2.55;;;24.10;35.90;;;;;;5053900;28;20040;-58
2022/05/12 09:35:59;;;;;;;2.83;2.20;;;24.10;36.00;;;;;;5069907;28;20078;-57
2022/05/12 09:38:26;;;;;;;3.50;2.22;;;24.10;35.80;;;;;;5065256;28;20071;-59
2022/05/12 09:40:54;;;;;;;3.50;2.00;;;24.10;35.70;;;;;;5054653;28;20032;-59
2022/05/12 09:43:31;;;;;;;2.63;1.98;;;24.10;35.60;;;;;;5062921;28;20043;-59
2022/05/12 09:46:02;;;;;;;2.83;2.13;;;24.10;35.50;;;;;;5072585;28;20032;-58
2022/05/12 09:48:31;;;;;;;2.92;2.00;;;24.10;35.60;;;;;;5064324;28;20028;-58
2022/05/12 09:51:25;;;;;;;3.13;2.50;;;24.10;35.50;;;;;;5059091;28;20032;-57
2022/05/12 09:54:31;;;;;;;3.30;1.88;;;24.10;35.40;;;;;;5052256;28;20051;-60
2022/05/12 09:56:59;;;;;;;2.40;2.13;;;24.00;35.70;;;;;;4977074;28;20042;-59
2022/05/12 09:59:28;;;;;;;1.88;1.77;;;24.10;35.50;;;;;;5039745;28;20483;-57
2022/05/12 10:02:01;;;;;;;3.22;2.33;;;24.00;35.30;;;;;;5045449;28;20143;-60
2022/05/12 10:10:26;;;;;;;5.60;2.22;;;24.00;35.50;;;;;;5055061;28;20043;-58
2022/05/12 10:13:02;;;;;;;3.30;2.35;;;24.00;35.60;;;;;;5046383;28;20048;-59
2022/05/12 10:15:33;;;;;;;2.88;2.47;;;24.00;35.60;;;;;;5045429;28;20028;-58
2022/05/12 10:18:01;;;;;;;2.95;2.30;;;24.00;35.70;;;;;;5059189;28;20047;-59
2022/05/12 10:20:28;;;;;;;3.55;2.08;;;24.00;35.80;;;;;;5059705;28;20141;-59
2022/05/12 10:23:07;;;;;;;2.55;1.92;;;24.00;35.70;;;;;;5057731;28;20062;-59
2022/05/12 10:25:47;;;;;;;3.70;2.60;;;24.00;35.70;;;;;;5054581;28;20036;-59
2022/05/12 10:28:20;;;;;;;3.08;2.38;;;24.00;35.80;;;;;;5067848;28;20412;-58
2022/05/12 10:31:18;;;;;;;2.75;2.47;;;24.00;35.80;;;;;;5042062;28;20055;-59
2022/05/12 10:33:50;;;;;;;3.45;2.50;;;24.00;35.90;;;;;;4985670;28;20136;-59
2022/05/12 10:36:34;;;;;;;2.47;2.08;;;24.00;35.90;;;;;;5064176;28;20578;-59
2022/05/12 10:39:28;;;;;;;3.38;2.17;;;24.00;36.80;;;;;;5059814;28;20031;-58
2022/05/12 10:42:12;;;;;;;3.30;2.30;;;24.00;36.10;;;;;;5055449;28;20028;-59
2022/05/12 10:44:41;;;;;;;3.80;2.30;;;24.00;36.30;;;;;;5061499;28;20031;-59
2022/05/12 10:47:32;;;;;;;3.13;2.30;;;24.00;36.30;;;;;;5048845;28;20080;-58
2022/05/12 10:50:11;;;;;;;;;;;24.10;36.30;;;;;;5062957;28;20032;-59
2022/05/12 10:52:49;;;;;;;;;;;24.00;36.30;;;;;;5057837;28;19927;-59
2022/05/12 10:55:25;;;;;;;;;;;24.00;36.30;;;;;;5051401;28;19916;-58
2022/05/12 10:58:04;;;;;;;;;;;24.10;36.40;;;;;;5064349;28;19916;-58
2022/05/12 11:00:34;;;;;;;;;;;24.10;36.60;;;;;;5044738;28;19964;-59
2022/05/12 11:03:05;;;;;;;;;;;24.10;36.60;;;;;;5056562;28;19950;-58
2022/05/12 11:05:30;;;;;;;;;;;24.10;36.60;;;;;;5058386;28;20291;-59
2022/05/12 11:08:11;;;;;;;;;;;24.10;36.70;;;;;;5066469;28;19908;-58
2022/05/12 11:10:42;;;;;;;;;;;24.10;36.60;;;;;;5072510;28;19966;-58
2022/05/12 11:13:21;;;;;;;;;;;24.10;36.60;;;;;;5063551;28;20379;-58
2022/05/12 11:15:58;;;;;;;;;;;24.10;36.70;;;;;;5061069;28;20034;-59
2022/05/12 11:18:28;;;;;;;;;;;24.10;36.70;;;;;;5069682;28;19958;-58
2022/05/12 11:21:01;;;;;;;;;;;24.10;36.80;;;;;;5063963;28;19931;-58
2022/05/12 11:23:46;;;;;;;;;;;24.10;37.60;;;;;;5064306;28;23013;-58
2022/05/12 11:26:17;;;;;;;;;;;24.10;37.00;;;;;;5065843;28;20044;-58
2022/05/12 11:31:58;;;;;;;;;;;24.10;37.10;;;;;;5065008;28;19940;-58
2022/05/12 11:34:24;;;;;;;;;;;24.10;37.10;;;;;;5066846;28;20399;-59
2022/05/12 11:36:52;;;;;;;;;;;24.10;37.10;;;;;;5068702;28;19916;-58
2022/05/12 11:39:31;;;;;;;;;;;24.10;37.20;;;;;;5067863;28;19920;-58
2022/05/12 11:42:15;;;;;;;;;;;24.10;37.20;;;;;;5065076;28;19911;-58
2022/05/12 11:44:59;;;;;;;;;;;24.10;37.00;;;;;;5067878;28;20351;-58
2022/05/12 11:47:36;;;;;;;;;;;24.10;37.10;;;;;;5065759;28;19951;-58
2022/05/12 11:50:08;;;;;;;;;;;24.10;37.10;;;;;;5069055;28;19927;-59
2022/05/12 11:52:46;;;;;;;;;;;24.20;37.20;;;;;;5060581;28;20371;-59
2022/05/12 11:55:23;;;;;;;;;;;24.30;37.30;;;;;;5067666;28;19916;-58
2022/05/12 11:58:04;;;;;;;;;;;24.30;37.40;;;;;;5068632;28;19957;-58
2022/05/12 12:00:36;;;;;;;;;;;24.30;37.30;;;;;;5062569;28;19920;-58
2022/05/12 12:03:28;;;;;;;;;;;24.30;37.30;;;;;;5061702;28;20090;-58
2022/05/12 12:05:53;;;;;;;;;;;24.30;37.40;;;;;;5065684;28;19916;-57
2022/05/12 12:08:31;;;;;;;;;;;24.40;37.40;;;;;;5066147;28;20390;-58
2022/05/12 12:11:11;;;;;;;;;;;24.40;37.40;;;;;;5061850;28;20261;-58
2022/05/12 12:13:37;;;;;;;;;;;24.40;37.60;;;;;;5073501;28;20380;-57
2022/05/12 12:16:07;;;;;;;;;;;24.40;37.70;;;;;;5074992;28;19939;-58
2022/05/12 12:18:33;;;;;;;;;;;24.40;37.80;;;;;;5073470;28;19916;-58
2022/05/12 12:20:59;;;;;;;;;;;24.40;38.10;;;;;;5069709;28;19970;-58
2022/05/12 12:23:31;;;;;;;;;;;24.40;38.00;;;;;;5071281;28;19947;-57
2022/05/12 12:25:59;;;;;;;;;;;24.40;38.00;;;;;;5073485;28;19915;-58
2022/05/12 12:28:27;;;;;;;;;;;24.50;38.20;;;;;;5074972;28;19970;-57
2022/05/12 12:30:53;;;;;;;;;;;24.40;38.30;;;;;;5066209;28;19920;-57
2022/05/12 12:33:35;;;;;;;;;;;24.40;38.30;;;;;;5066144;28;19916;-58
2022/05/12 12:36:06;;;;;;;;;;;24.50;38.50;;;;;;5073282;28;20429;-58
2022/05/12 12:38:46;;;;;;;;;;;24.50;38.50;;;;;;5070212;28;19958;-58
2022/05/12 12:41:12;;;;;;;;;;;24.50;38.40;;;;;;5072165;28;20781;-58
2022/05/12 12:43:40;;;;;;;;;;;24.50;38.60;;;;;;5068050;28;20027;-57
2022/05/12 12:46:15;;;;;;;;;;;24.50;38.60;;;;;;5074002;28;20025;-57
2022/05/12 12:48:45;;;;;;;;;;;24.60;38.50;;;;;;5067816;28;19912;-58
2022/05/12 12:51:11;;;;;;;;;;;24.60;38.60;;;;;;5068101;28;20401;-58
2022/05/12 12:56:31;;;;;;;;;;;24.60;38.70;;;;;;5065971;28;19919;-58
2022/05/12 12:59:08;;;;;;;;;;;24.60;38.80;;;;;;5069716;28;19916;-58
2022/05/12 13:01:40;;;;;;;;;;;24.60;39.10;;;;;;5067225;28;19969;-57
2022/05/12 13:04:07;;;;;;;;;;;24.60;39.10;;;;;;5041392;28;19912;-58
2022/05/12 13:06:37;;;;;;;;;;;24.60;39.10;;;;;;5072274;28;20615;-56
2022/05/12 13:09:04;;;;;;;;;;;24.70;39.20;;;;;;5066509;28;20372;-58
2022/05/12 13:11:30;;;;;;;;;;;24.70;39.20;;;;;;5070444;28;20583;-58
2022/05/12 13:13:56;;;;;;;;;;;24.70;39.30;;;;;;5071439;28;19919;-59
2022/05/12 13:16:23;;;;;;;;;;;24.80;39.40;;;;;;5072040;28;19912;-59
2022/05/12 13:18:51;;;;;;;;;;;24.80;39.30;;;;;;5069587;28;19951;-58
2022/05/12 13:21:21;;;;;;;;;;;24.80;39.30;;;;;;5064082;28;19986;-59
2022/05/12 13:23:57;;;;;;;;;;;24.80;39.50;;;;;;5062528;28;19919;-58
2022/05/12 13:26:22;;;;;;;;;;;24.80;39.30;;;;;;5070181;28;19916;-57
2022/05/12 13:28:48;;;;;;;;;;;24.80;39.20;;;;;;5071733;28;19965;-58
2022/05/12 13:31:23;;;;;;;;;;;24.90;39.50;;;;;;5063356;28;19923;-59
2022/05/12 13:33:59;;;;;;;;;;;24.90;39.40;;;;;;5064556;28;19951;-58
2022/05/12 13:36:27;;;;;;;;;;;24.90;39.40;;;;;;5061361;28;19923;-58
2022/05/12 13:38:53;;;;;;;;;;;25.00;39.60;;;;;;5063083;28;19924;-59